Kuujjuaq Airport

Airport
ICAO code: 
CYVP
Summary
ICAO Region: 
NAM
Territory: 
Location: 
Kuujjuaq, Quebec,
Coordinates: 
Aerial View: 
58° 6' 10.786" N, 68° 25' 7.82" W
Airport BS: 
Non Avian Wildlife Hazards to Aircraft
Airport CFIT: 
Altimeter Temperature Error Correction
Airport GND: 
Aircraft Ground De/Anti Icing
Airport RE: 
Crosswind Landings
Metar
Observation
CYVP 272017Z 36011KT 1 3/4SM -FZDZ -SN BKN007 BKN013 OVC022 M01/M01 A2937 RMK SN3ST4SC1SC1 SC TR SLP950
Station
Kuujjuaq, Que.
Date/Time
2021-11-27 20:17:00
Wind direction
360°
Wind speed
11 kts
Lowest cloud amount
broken clouds
Temperature
-1°C
Dew point
-1°C
Humidity
100%
Weather condition
light freezing

Description

Airport serving Kuujjuaq, Quebec.

Climatology

Tundra climate (Köppen climate classification ET) - warmest month has an average temperature of 0 - 10 degrees C.

Runways

Designator Length Width Surface Rops
13/31 1524 46 GVL Yes/Yes
7/25 1829 46 ASP Yes/Yes
Airport map: 
Aerial View: 

SKYbrary Partners:

Safety knowledge contributed by: